»·PEaware :: N756SP S36-KAST

N756SP :: S36-KAST

FLIGHT INFORMATION

Flight Status: Arrived
Operator: Privately registered:
United States
More flights under this callsign
Pilot: Jacko H. (31567)
Aircraft: CESSNA 172 SKYHAWK
(C172)
More flights by this aircraft type
Origin: S36 Norman Grier Field
United States
Destination: KAST Astoria Regl
United States
More flights between these airports :: More routes between these airports
Route: KSHN KHQM 14S WN88
File this flight plan on PilotEdge
Remarks:
Altitude:
(Current/Filed)
4,500ft
Speed:
(Current/Filed)
110kts
Departed: 08-Nov-20 01:08 PM
Arrived: 08-Nov-20 02:19 PM
Distance/Time
Traveled:
102nm/1:11
Distance/Time
To Go:
Arrived

Flight Plot

Page will automatically refresh every two minutes.

Flight plan parsing failed; only flown route is shown


Map Options




Map Legend


Flown Route
Filed Route
Departure Airport
Arrival Airport
Navaid (VOR, NDB)
Fix

Horizontal Profiles

Position Reports

Time Latitude Longitude Heading Altitude Ground
Speed
08-Nov-20 13:07 47.345599 -122.516517 320 2704ft 103kts
08-Nov-20 13:07 47.361519 -122.541881 312 3093ft 95kts
08-Nov-20 13:09 47.374114 -122.578371 259 3854ft 90kts
08-Nov-20 13:09 47.370160 -122.610632 250 4304ft 82kts
08-Nov-20 13:11 47.358031 -122.652233 248 4525ft 110kts
08-Nov-20 13:11 47.348701 -122.687375 251 4623ft 110kts
08-Nov-20 13:13 47.338861 -122.738610 259 4692ft 112kts
08-Nov-20 13:13 47.332774 -122.775773 257 4661ft 110kts
08-Nov-20 13:14 47.325418 -122.820674 248 4538ft 112kts
08-Nov-20 13:15 47.313593 -122.863144 244 4542ft 112kts
08-Nov-20 13:16 47.297029 -122.902431 242 4544ft 113kts
08-Nov-20 13:17 47.287782 -122.946167 255 4554ft 112kts
08-Nov-20 13:18 47.277493 -122.989604 248 4581ft 112kts
08-Nov-20 13:19 47.264648 -123.031467 246 4579ft 112kts
08-Nov-20 13:20 47.251575 -123.073293 240 4587ft 112kts
08-Nov-20 13:21 47.236360 -123.113079 246 4621ft 109kts
08-Nov-20 13:22 47.222490 -123.152473 244 4644ft 106kts
08-Nov-20 13:23 47.212402 -123.193650 287 4561ft 117kts
08-Nov-20 13:24 47.210892 -123.232800 205 4585ft 108kts
08-Nov-20 13:25 47.195062 -123.273062 242 4589ft 119kts
08-Nov-20 13:26 47.180283 -123.317731 242 4506ft 121kts
08-Nov-20 13:27 47.165560 -123.361914 241 4499ft 119kts
08-Nov-20 13:28 47.150919 -123.405657 241 4503ft 120kts
08-Nov-20 13:29 47.135996 -123.450160 242 4497ft 125kts
08-Nov-20 13:30 47.120511 -123.496265 242 4499ft 124kts
08-Nov-20 13:31 47.105295 -123.541476 242 4501ft 123kts
08-Nov-20 13:32 47.090075 -123.586622 241 4496ft 123kts
08-Nov-20 13:33 47.074903 -123.631563 241 4499ft 123kts
08-Nov-20 13:34 47.059680 -123.676562 241 4484ft 124kts
08-Nov-20 13:35 47.044457 -123.721483 241 4504ft 122kts
08-Nov-20 13:36 47.029261 -123.766256 241 4522ft 122kts
08-Nov-20 13:37 47.014039 -123.811024 241 4527ft 123kts
08-Nov-20 13:38 46.998688 -123.856096 241 4526ft 123kts
08-Nov-20 13:39 46.983422 -123.900829 241 4526ft 122kts
08-Nov-20 13:40 46.967501 -123.945001 235 4531ft 122kts
08-Nov-20 13:41 46.948700 -123.986580 230 4530ft 120kts
08-Nov-20 13:42 46.931024 -124.025589 234 4528ft 110kts
08-Nov-20 13:43 46.914149 -124.062858 237 4529ft 109kts
08-Nov-20 13:44 46.896480 -124.098586 205 4523ft 112kts
08-Nov-20 13:45 46.864285 -124.095477 178 4529ft 116kts
08-Nov-20 13:46 46.831569 -124.089880 183 4530ft 125kts
08-Nov-20 13:47 46.794198 -124.083562 180 4529ft 136kts
08-Nov-20 13:48 46.757325 -124.077395 180 4528ft 133kts
08-Nov-20 13:49 46.720457 -124.071229 180 4531ft 133kts
08-Nov-20 13:50 46.683715 -124.065091 180 4529ft 133kts
08-Nov-20 13:51 46.646986 -124.058965 179 4532ft 133kts
08-Nov-20 13:52 46.609007 -124.052639 179 4533ft 142kts
08-Nov-20 13:53 46.569595 -124.046081 179 4525ft 142kts
08-Nov-20 13:54 46.530200 -124.039539 179 4531ft 143kts
08-Nov-20 13:55 46.490802 -124.033005 179 4526ft 142kts
08-Nov-20 13:56 46.451508 -124.026500 179 4527ft 142kts
08-Nov-20 13:57 46.412176 -124.019996 179 4531ft 142kts
08-Nov-20 13:58 46.372866 -124.013505 179 4537ft 142kts
08-Nov-20 13:59 46.332862 -124.009756 187 4346ft 143kts
08-Nov-20 14:00 46.294505 -123.993364 145 3607ft 148kts
08-Nov-20 14:01 46.263118 -123.961008 152 3134ft 127kts
08-Nov-20 14:02 46.237715 -123.926661 135 2523ft 120kts
08-Nov-20 14:03 46.214605 -123.889642 140 1692ft 123kts
08-Nov-20 14:04 46.187288 -123.863737 187 1116ft 109kts
08-Nov-20 14:05 46.173453 -123.890906 266 983ft 91kts
08-Nov-20 14:06 46.165802 -123.911514 149 734ft 68kts
08-Nov-20 14:07 46.159699 -123.887321 94 35ft 57kts
08-Nov-20 14:08 46.158166 -123.867805 96 284ft 65kts
08-Nov-20 14:09 46.164123 -123.849381 351 1059ft 83kts
08-Nov-20 14:10 46.170818 -123.888748 289 1009ft 109kts
08-Nov-20 14:11 46.164893 -123.915237 195 649ft 77kts
08-Nov-20 14:12 46.160045 -123.892816 95 140ft 62kts
08-Nov-20 14:13 46.158588 -123.871907 93 105ft 59kts
08-Nov-20 14:14 46.166039 -123.853017 344 803ft 80kts
08-Nov-20 14:15 46.171567 -123.890280 291 1026ft 101kts
08-Nov-20 14:16 46.161224 -123.908636 126 602ft 77kts
08-Nov-20 14:17 46.159378 -123.882787 93 12ft 41kts
08-Nov-20 14:18 46.158068 -123.878929 243 16ft 0kts
08-Nov-20 14:19 46.156683 -123.881303 137 16ft 10kts
08-Nov-20 14:20 46.155556 -123.880826 64 16ft 0kts
08-Nov-20 14:21 46.155556 -123.880826 64 16ft 0kts

Navigation Log

Ident Type
Flight plan parsing failed, navigation log unavailable